Time;durP1;ratioP1;P1;durP2;ratioP2;P2;SDS_P1;SDS_P2;PMS_P1;PMS_P2;Temp;Humidity;BMP_temperature;BMP_pressure;BME280_temperature;BME280_humidity;BME280_pressure;Samples;Min_cycle;Max_cycle;Signal;HPM_P1;HPM_P2
2021/07/15 00:00:17;;;;;;;6.93;6.35;;;;;;;21.77;61.91;100612.91;702494;28;22417;-62
2021/07/15 00:00:40;;;;;;;7.15;6.47;;;;;;;21.75;62.12;100602.19;698256;28;116663;-62
2021/07/15 00:01:05;;;;;;;6.50;6.00;;;;;;;21.74;62.17;100605.19;699432;28;90320;-62
2021/07/15 00:01:27;;;;;;;7.25;6.60;;;;;;;21.72;61.95;100607.34;698850;28;113722;-62
2021/07/15 00:01:49;;;;;;;7.20;6.50;;;;;;;21.71;62.10;100609.28;696951;28;46380;-62
2021/07/15 00:02:11;;;;;;;7.43;6.72;;;;;;;21.70;62.27;100606.78;698848;28;43727;-62
2021/07/15 00:02:32;;;;;;;7.03;6.43;;;;;;;21.69;62.01;100608.72;697929;28;44471;-62
2021/07/15 00:02:53;;;;;;;6.63;6.13;;;;;;;21.67;62.35;100610.06;699875;28;1314;-62
2021/07/15 00:03:18;;;;;;;7.18;6.47;;;;;;;21.64;62.28;100611.38;699576;28;23344;-62
2021/07/15 00:03:39;;;;;;;6.85;6.25;;;;;;;21.63;62.52;100609.75;697112;28;113660;-63
2021/07/15 00:04:00;;;;;;;7.15;6.45;;;;;;;21.63;62.33;100607.00;702216;28;22489;-62
2021/07/15 00:04:22;;;;;;;6.70;6.10;;;;;;;21.62;62.79;100610.81;703308;28;934;-62
2021/07/15 00:04:43;;;;;;;6.82;6.32;;;;;;;21.62;62.33;100608.06;703069;28;7027;-62
2021/07/15 00:05:07;;;;;;;6.88;6.28;;;;;;;21.60;62.67;100619.31;702849;28;15546;-62
2021/07/15 00:05:30;;;;;;;7.07;6.57;;;;;;;21.59;62.48;100614.06;699760;28;85896;-62
2021/07/15 00:05:53;;;;;;;8.48;6.70;;;;;;;21.58;62.69;100612.38;700494;28;47260;-62
2021/07/15 00:06:14;;;;;;;7.63;6.80;;;;;;;21.58;62.54;100615.13;699622;28;92377;-62
2021/07/15 00:06:35;;;;;;;7.28;6.60;;;;;;;21.57;62.88;100616.25;702372;28;23504;-62
2021/07/15 00:06:57;;;;;;;7.47;6.78;;;;;;;21.55;62.71;100612.91;702058;28;22419;-62
2021/07/15 00:07:18;;;;;;;6.95;6.43;;;;;;;21.51;62.84;100611.75;694664;28;38368;-63
2021/07/15 00:07:40;;;;;;;6.53;6.03;;;;;;;21.51;62.84;100609.00;697437;28;914;-62
2021/07/15 00:08:01;;;;;;;6.90;6.40;;;;;;;21.49;62.76;100611.16;696666;28;19973;-62
2021/07/15 00:08:24;;;;;;;7.30;6.70;;;;;;;21.47;62.70;100611.38;696777;28;23518;-62
2021/07/15 00:08:47;;;;;;;6.75;6.25;;;;;;;21.46;62.71;100614.38;694065;28;92383;-62
2021/07/15 00:09:09;;;;;;;6.75;6.22;;;;;;;21.43;62.75;100611.06;697356;28;47412;-62
2021/07/15 00:09:30;;;;;;;7.07;6.47;;;;;;;21.42;62.63;100608.56;700750;28;42845;-62
2021/07/15 00:09:51;;;;;;;7.20;6.60;;;;;;;21.41;63.10;100612.38;702313;28;22400;-62
2021/07/15 00:10:18;;;;;;;6.82;6.32;;;;;;;21.41;62.92;100617.88;702168;28;21516;-62
2021/07/15 00:10:44;;;;;;;7.15;6.65;;;;;;;21.37;63.05;100611.25;697645;28;137983;-62
2021/07/15 00:11:08;;;;;;;7.63;6.60;;;;;;;21.38;63.18;100607.44;697954;28;139076;-62
2021/07/15 00:11:29;;;;;;;7.40;6.50;;;;;;;21.37;62.87;100616.75;700648;28;61245;-62
2021/07/15 00:11:51;;;;;;;7.05;6.47;;;;;;;21.36;63.02;100623.31;700323;28;46398;-62
2021/07/15 00:12:15;;;;;;;7.43;6.82;;;;;;;21.35;63.11;100613.44;702704;28;906;-62
2021/07/15 00:12:38;;;;;;;7.28;6.68;;;;;;;21.35;63.34;100621.66;699077;28;115086;-62
2021/07/15 00:12:59;;;;;;;7.32;6.72;;;;;;;21.35;63.38;100624.41;700860;28;64123;-62
2021/07/15 00:13:21;;;;;;;7.30;6.70;;;;;;;21.34;63.29;100623.56;702842;28;906;-62
2021/07/15 00:13:44;;;;;;;7.35;6.75;;;;;;;21.34;63.37;100620.81;701994;28;23496;-62
2021/07/15 00:14:06;;;;;;;6.90;6.40;;;;;;;21.36;63.49;100624.16;700328;28;64184;-62
2021/07/15 00:14:27;;;;;;;7.20;6.57;;;;;;;21.36;63.49;100620.56;701142;28;46178;-62
2021/07/15 00:14:48;;;;;;;6.90;6.30;;;;;;;21.35;63.42;100625.25;702794;28;20591;-62
2021/07/15 00:15:10;;;;;;;6.95;6.35;;;;;;;21.34;63.56;100626.31;702323;28;23324;-62
2021/07/15 00:15:35;;;;;;;7.45;6.85;;;;;;;21.35;63.69;100624.41;701506;28;47687;-62
2021/07/15 00:15:59;;;;;;;7.28;6.68;;;;;;;21.34;63.42;100629.06;698334;28;115965;-62
2021/07/15 00:16:22;;;;;;;7.15;6.55;;;;;;;21.34;63.76;100625.50;700835;28;56121;-62
2021/07/15 00:16:44;;;;;;;7.25;6.70;;;;;;;21.34;63.65;100633.72;701481;28;53902;-62
2021/07/15 00:17:05;;;;;;;7.20;6.70;;;;;;;21.34;63.80;100630.97;702687;28;14530;-62
2021/07/15 00:17:28;;;;;;;7.05;6.45;;;;;;;21.33;63.57;100626.56;700723;28;45108;-62
2021/07/15 00:17:49;;;;;;;7.50;6.72;;;;;;;21.32;63.68;100631.22;700558;28;65125;-62
2021/07/15 00:18:12;;;;;;;9.45;6.90;;;;;;;21.31;63.68;100628.75;702526;28;21428;-62
2021/07/15 00:18:35;;;;;;;7.45;6.75;;;;;;;21.30;63.80;100630.66;701079;28;46313;-62
2021/07/15 00:18:56;;;;;;;6.90;6.30;;;;;;;21.29;63.94;100637.22;699642;28;68560;-62
2021/07/15 00:19:19;;;;;;;6.63;6.13;;;;;;;21.27;63.92;100639.41;702016;28;9745;-62
2021/07/15 00:19:40;;;;;;;7.18;6.40;;;;;;;21.27;64.14;100635.81;701271;28;46096;-62
2021/07/15 00:20:01;;;;;;;7.25;6.53;;;;;;;21.26;64.13;100639.66;702193;28;24180;-62
2021/07/15 00:20:24;;;;;;;7.83;6.40;;;;;;;21.26;63.79;100634.97;701458;28;44406;-62
2021/07/15 00:20:47;;;;;;;7.15;6.50;;;;;;;21.24;64.09;100635.22;700175;28;70220;-62
2021/07/15 00:21:11;;;;;;;7.32;6.72;;;;;;;21.24;64.05;100632.50;700889;28;67480;-62
2021/07/15 00:21:32;;;;;;;7.28;6.68;;;;;;;21.23;63.93;100635.47;699606;28;88379;-63
2021/07/15 00:21:55;;;;;;;7.28;6.68;;;;;;;21.22;63.96;100637.41;700633;28;46328;-62
2021/07/15 00:22:16;;;;;;;6.80;6.20;;;;;;;21.20;63.98;100633.25;700599;28;69461;-62
2021/07/15 00:22:38;;;;;;;7.03;6.43;;;;;;;21.18;64.03;100627.19;702337;28;21520;-62
2021/07/15 00:23:00;;;;;;;6.85;6.35;;;;;;;21.17;64.08;100629.06;696217;28;22411;-62
2021/07/15 00:23:21;;;;;;;7.47;6.88;;;;;;;21.17;63.92;100631.81;694527;28;45366;-62
2021/07/15 00:23:43;;;;;;;7.50;6.90;;;;;;;21.16;64.11;100626.56;696095;28;21535;-63
2021/07/15 00:24:05;;;;;;;7.43;6.82;;;;;;;21.15;64.03;100622.19;695548;28;45241;-62
2021/07/15 00:24:27;;;;;;;7.53;6.93;;;;;;;21.14;64.28;100618.59;696005;28;46343;-62
2021/07/15 00:24:49;;;;;;;7.05;6.45;;;;;;;21.12;64.05;100629.00;697921;28;21526;-62
2021/07/15 00:25:12;;;;;;;7.10;6.50;;;;;;;21.10;64.14;100617.44;701337;28;45254;-62
2021/07/15 00:25:33;;;;;;;7.15;6.55;;;;;;;21.09;64.12;100621.25;699595;28;93259;-62
2021/07/15 00:25:55;;;;;;;7.22;6.63;;;;;;;21.06;64.29;100625.34;701807;28;22417;-62
2021/07/15 00:26:18;;;;;;;7.18;6.53;;;;;;;21.03;64.35;100625.84;701756;28;47279;-62
2021/07/15 00:26:39;;;;;;;7.43;6.82;;;;;;;21.02;64.38;100621.44;700741;28;46427;-62
2021/07/15 00:27:00;;;;;;;7.50;6.90;;;;;;;21.01;64.56;100621.69;702450;28;9227;-62
2021/07/15 00:27:23;;;;;;;7.60;6.82;;;;;;;20.99;64.37;100619.19;696560;28;1705;-62
2021/07/15 00:27:44;;;;;;;7.07;6.57;;;;;;;20.98;64.60;100620.25;696557;28;22182;-62
2021/07/15 00:28:07;;;;;;;7.25;6.68;;;;;;;20.98;64.67;100619.44;695884;28;38708;-62
2021/07/15 00:28:29;;;;;;;7.50;6.80;;;;;;;20.97;64.71;100615.00;695056;28;69331;-62
2021/07/15 00:28:51;;;;;;;8.05;7.25;;;;;;;20.96;64.87;100616.13;696444;28;24320;-62
2021/07/15 00:29:13;;;;;;;7.75;7.05;;;;;;;20.94;64.85;100621.84;698110;28;20323;-62
2021/07/15 00:29:36;;;;;;;7.65;6.93;;;;;;;20.93;64.86;100616.63;702555;28;4933;-62
2021/07/15 00:29:57;;;;;;;7.13;6.50;;;;;;;20.92;64.82;100621.25;699666;28;69313;-62
2021/07/15 00:30:18;;;;;;;7.07;6.43;;;;;;;20.92;64.72;100621.25;702087;28;20594;-62
2021/07/15 00:30:39;;;;;;;7.38;6.60;;;;;;;20.91;64.62;100625.09;702424;28;3316;-62
2021/07/15 00:31:00;;;;;;;7.40;6.35;;;;;;;20.90;64.58;100620.69;701130;28;47571;-62
2021/07/15 00:31:22;;;;;;;7.38;6.78;;;;;;;20.90;64.87;100617.94;702032;28;22393;-62
2021/07/15 00:31:44;;;;;;;7.68;6.97;;;;;;;20.90;64.81;100619.84;701457;28;41063;-62
2021/07/15 00:32:05;;;;;;;7.72;7.03;;;;;;;20.89;64.82;100610.75;702385;28;17755;-62
2021/07/15 00:32:28;;;;;;;6.95;6.35;;;;;;;20.90;64.76;100619.84;699970;28;67494;-62
2021/07/15 00:32:51;;;;;;;6.82;6.32;;;;;;;20.86;64.75;100617.59;702832;28;933;-62
2021/07/15 00:33:13;;;;;;;7.45;6.85;;;;;;;20.86;64.96;100612.13;702959;28;893;-62
2021/07/15 00:33:34;;;;;;;7.43;6.82;;;;;;;20.84;64.90;100614.25;702026;28;22486;-63
2021/07/15 00:33:55;;;;;;;8.13;6.90;;;;;;;20.85;65.01;100617.84;701263;28;23436;-62
2021/07/15 00:34:17;;;;;;;7.83;7.10;;;;;;;20.83;65.03;100620.00;701382;28;41353;-62
2021/07/15 00:34:38;;;;;;;7.10;6.50;;;;;;;20.81;65.02;100622.97;695572;28;44737;-62
2021/07/15 00:35:00;;;;;;;7.10;6.50;;;;;;;20.81;65.20;100616.66;696521;28;21195;-62
2021/07/15 00:35:21;;;;;;;7.65;6.97;;;;;;;20.80;65.20;100624.09;695720;28;47587;-62
2021/07/15 00:35:43;;;;;;;7.57;6.88;;;;;;;20.78;65.14;100626.22;696739;28;21513;-62
2021/07/15 00:36:04;;;;;;;7.05;6.45;;;;;;;20.78;65.22;100628.16;696469;28;25787;-62
2021/07/15 00:36:25;;;;;;;7.10;6.60;;;;;;;20.77;65.15;100619.09;696865;28;13530;-62
2021/07/15 00:36:46;;;;;;;7.05;6.50;;;;;;;20.77;65.45;100624.56;702801;28;21532;-62
2021/07/15 00:37:08;;;;;;;7.30;6.60;;;;;;;20.77;65.15;100629.22;702302;28;23584;-62
2021/07/15 00:37:29;;;;;;;7.70;7.10;;;;;;;20.74;65.05;100630.56;702890;28;1794;-62
2021/07/15 00:37:50;;;;;;;7.97;7.18;;;;;;;20.75;65.31;100634.13;702037;28;14574;-62
2021/07/15 00:38:12;;;;;;;7.60;6.90;;;;;;;20.74;65.29;100632.47;702293;28;22413;-62
2021/07/15 00:38:33;;;;;;;7.45;6.75;;;;;;;20.72;65.21;100634.63;702237;28;22412;-62
2021/07/15 00:38:55;;;;;;;7.15;6.53;;;;;;;20.70;65.28;100629.38;701296;28;46285;-62
2021/07/15 00:39:16;;;;;;;7.40;6.70;;;;;;;20.68;65.38;100637.84;701934;28;23433;-62
2021/07/15 00:39:37;;;;;;;7.32;6.70;;;;;;;20.68;65.35;100635.13;701744;28;21510;-62
2021/07/15 00:39:58;;;;;;;7.30;6.60;;;;;;;20.68;65.24;100635.13;702340;28;23421;-62
2021/07/15 00:40:20;;;;;;;7.37;6.73;;;;;;;20.68;65.27;100637.03;701599;28;44387;-62
2021/07/15 00:40:41;;;;;;;7.10;6.57;;;;;;;20.66;65.31;100633.72;700062;28;67486;-62
2021/07/15 00:41:03;;;;;;;6.93;6.40;;;;;;;20.65;65.55;100635.59;701752;28;44330;-62
2021/07/15 00:41:24;;;;;;;7.15;6.55;;;;;;;20.64;65.40;100638.56;702399;28;22380;-62
2021/07/15 00:41:46;;;;;;;7.20;6.57;;;;;;;20.64;65.76;100641.31;702421;28;10285;-62
2021/07/15 00:42:07;;;;;;;7.20;6.60;;;;;;;20.62;65.54;100635.25;701336;28;44248;-62
2021/07/15 00:42:28;;;;;;;7.13;6.53;;;;;;;20.62;65.60;100640.72;701702;28;23456;-62
2021/07/15 00:42:49;;;;;;;7.28;6.68;;;;;;;20.61;65.61;100641.81;702259;28;24412;-62
2021/07/15 00:43:11;;;;;;;7.55;6.90;;;;;;;20.60;65.52;100635.50;702552;28;21519;-62
2021/07/15 00:43:32;;;;;;;7.43;6.72;;;;;;;20.60;65.60;100640.97;701408;28;46122;-62
2021/07/15 00:43:55;;;;;;;7.40;6.80;;;;;;;20.60;65.65;100645.66;702310;28;23426;-62
2021/07/15 00:44:16;;;;;;;7.13;6.63;;;;;;;20.59;65.66;100638.47;700287;28;62355;-62
2021/07/15 00:44:37;;;;;;;7.22;6.63;;;;;;;20.60;65.62;100637.41;702368;28;23547;-62
2021/07/15 00:44:58;;;;;;;7.28;6.70;;;;;;;20.59;65.78;100641.22;702485;28;22421;-62
2021/07/15 00:45:20;;;;;;;7.65;7.03;;;;;;;20.59;65.95;100636.56;702200;28;24427;-62
2021/07/15 00:45:41;;;;;;;7.63;6.93;;;;;;;20.59;65.65;100642.03;700250;28;46279;-62
2021/07/15 00:46:02;;;;;;;7.20;6.60;;;;;;;20.61;65.70;100636.31;701699;28;22401;-62
2021/07/15 00:46:23;;;;;;;7.43;6.72;;;;;;;20.61;65.57;100644.53;702268;28;22441;-62
2021/07/15 00:46:44;;;;;;;7.45;6.75;;;;;;;20.61;65.65;100636.31;702859;28;8985;-62
2021/07/15 00:47:10;;;;;;;7.25;6.65;;;;;;;20.61;65.74;100637.16;701843;28;35463;-62
2021/07/15 00:47:31;;;;;;;7.10;6.55;;;;;;;20.62;65.70;100638.00;701313;28;36820;-62
2021/07/15 00:47:52;;;;;;;7.32;6.72;;;;;;;20.63;65.51;100639.66;702138;28;21553;-62
2021/07/15 00:48:13;;;;;;;7.40;6.80;;;;;;;20.63;65.61;100640.50;702561;28;18367;-62
2021/07/15 00:48:35;;;;;;;7.82;7.20;;;;;;;20.63;65.51;100637.75;703042;28;5207;-62
2021/07/15 00:48:56;;;;;;;7.72;7.13;;;;;;;20.65;65.61;100640.28;701818;28;37044;-62
2021/07/15 00:49:17;;;;;;;6.97;6.47;;;;;;;20.64;65.44;100635.81;701852;28;8929;-62
2021/07/15 00:49:38;;;;;;;6.97;6.47;;;;;;;20.63;65.53;100637.75;702514;28;14337;-62
2021/07/15 00:50:00;;;;;;;7.75;6.95;;;;;;;20.64;65.54;100636.72;702443;28;15144;-62
2021/07/15 00:50:23;;;;;;;7.40;6.80;;;;;;;20.65;65.58;100640.28;702745;28;882;-62
2021/07/15 00:50:44;;;;;;;7.28;6.78;;;;;;;20.65;65.39;100635.59;701344;28;46392;-62
2021/07/15 00:51:06;;;;;;;7.22;6.63;;;;;;;20.65;65.29;100645.75;701894;28;23502;-63
2021/07/15 00:51:30;;;;;;;7.47;6.88;;;;;;;20.65;65.64;100632.03;703186;28;1926;-62
2021/07/15 00:51:57;;;;;;;7.05;6.55;;;;;;;20.64;65.54;100636.72;700391;28;60110;-62
2021/07/15 00:52:19;;;;;;;7.20;6.60;;;;;;;20.66;65.29;100628.22;701065;28;46364;-62
2021/07/15 00:52:44;;;;;;;7.43;6.78;;;;;;;20.67;65.32;100638.09;701515;28;35605;-62
2021/07/15 00:53:07;;;;;;;8.02;7.22;;;;;;;20.67;65.46;100641.69;701440;28;46298;-62
2021/07/15 00:53:29;;;;;;;7.43;6.80;;;;;;;20.67;65.30;100646.34;700452;28;67425;-62
2021/07/15 00:53:50;;;;;;;7.53;6.93;;;;;;;20.67;65.25;100640.84;701483;28;44009;-62
2021/07/15 00:54:12;;;;;;;7.32;6.72;;;;;;;20.67;65.56;100644.44;701972;28;22440;-62
2021/07/15 00:54:33;;;;;;;7.07;6.47;;;;;;;20.68;65.25;100645.28;701467;28;23539;-62
2021/07/15 00:54:54;;;;;;;7.00;6.50;;;;;;;20.67;65.17;100647.19;701061;28;19347;-62
2021/07/15 00:55:18;;;;;;;7.17;6.60;;;;;;;20.67;65.16;100638.97;701126;28;36336;-62
2021/07/15 00:55:42;;;;;;;7.30;6.70;;;;;;;20.68;65.21;100645.28;699105;28;107188;-61
2021/07/15 00:56:03;;;;;;;7.25;6.55;;;;;;;20.67;65.22;100649.94;699251;28;77806;-62
2021/07/15 00:56:25;;;;;;;7.28;6.78;;;;;;;20.67;65.36;100644.44;702098;28;18388;-62
2021/07/15 00:56:47;;;;;;;7.60;7.00;;;;;;;20.67;65.27;100647.19;703070;28;1697;-61
2021/07/15 00:57:09;;;;;;;7.35;6.65;;;;;;;20.67;64.82;100655.41;702406;28;20892;-62
2021/07/15 00:57:31;;;;;;;7.30;6.70;;;;;;;20.65;65.35;100646.59;700891;28;37045;-62
2021/07/15 00:57:52;;;;;;;7.00;6.50;;;;;;;20.65;65.10;100652.06;701967;28;21543;-62
2021/07/15 00:58:14;;;;;;;6.90;6.40;;;;;;;20.66;65.22;100655.66;701078;28;44044;-62
2021/07/15 00:58:37;;;;;;;7.15;6.47;;;;;;;20.67;64.93;100660.91;701828;28;38325;-62
2021/07/15 00:58:59;;;;;;;7.40;6.70;;;;;;;20.65;65.02;100660.31;701367;28;40593;-62
2021/07/15 00:59:21;;;;;;;7.15;6.47;;;;;;;20.65;65.15;100663.03;699638;28;69513;-62
2021/07/15 00:59:42;;;;;;;6.90;6.20;;;;;;;20.65;65.16;100665.78;701571;28;47497;-62
2021/07/15 01:00:05;;;;;;;6.93;6.43;;;;;;;20.66;65.04;100667.47;702062;28;905;-62
2021/07/15 01:00:28;;;;;;;7.40;6.80;;;;;;;20.65;65.40;100670.47;700633;28;70188;-62
2021/07/15 01:00:50;;;;;;;7.28;6.65;;;;;;;20.66;65.13;100667.47;701281;28;37248;-62
2021/07/15 01:01:11;;;;;;;7.35;6.75;;;;;;;20.66;65.06;100669.38;695995;28;20369;-62
2021/07/15 01:01:32;;;;;;;7.47;6.78;;;;;;;20.65;65.11;100668.53;696718;28;21030;-62
2021/07/15 01:01:54;;;;;;;7.78;7.07;;;;;;;20.66;65.07;100672.13;694999;28;46300;-62
2021/07/15 01:02:16;;;;;;;7.57;6.97;;;;;;;20.66;65.04;100666.66;695088;28;42402;-62
2021/07/15 01:02:37;;;;;;;7.13;6.53;;;;;;;20.65;65.15;100668.53;696213;28;15715;-62
2021/07/15 01:02:58;;;;;;;7.13;6.60;;;;;;;20.66;65.11;100666.66;697444;28;23575;-62
2021/07/15 01:03:22;;;;;;;7.90;7.03;;;;;;;20.65;65.08;100668.53;703220;28;945;-62
2021/07/15 01:03:43;;;;;;;8.32;6.85;;;;;;;20.65;65.02;100664.97;700557;28;69688;-62
2021/07/15 01:04:04;;;;;;;7.60;6.90;;;;;;;20.64;65.04;100666.91;701840;28;21538;-62
2021/07/15 01:04:25;;;;;;;7.30;6.60;;;;;;;20.63;65.13;100664.38;701801;28;22637;-62
2021/07/15 01:04:46;;;;;;;7.38;6.78;;;;;;;20.64;64.92;100668.75;702322;28;21531;-62
2021/07/15 01:05:11;;;;;;;7.00;6.50;;;;;;;20.65;65.01;100664.97;701679;28;44387;-62
2021/07/15 01:05:34;;;;;;;7.32;6.63;;;;;;;20.65;65.01;100662.22;699710;28;92252;-62
2021/07/15 01:05:56;;;;;;;7.20;6.45;;;;;;;20.64;65.13;100657.78;700096;28;67502;-62
2021/07/15 01:06:17;;;;;;;7.28;6.57;;;;;;;20.64;65.08;100663.25;701149;28;46273;-62
2021/07/15 01:06:39;;;;;;;7.03;6.43;;;;;;;20.65;65.20;100664.97;702380;28;23441;-62
2021/07/15 01:07:00;;;;;;;7.40;6.78;;;;;;;20.64;65.42;100664.16;701094;28;45242;-62
2021/07/15 01:07:22;;;;;;;7.05;6.45;;;;;;;20.65;65.07;100665.78;702892;28;1141;-62
2021/07/15 01:07:43;;;;;;;6.53;6.03;;;;;;;20.64;65.10;100660.53;701966;28;22475;-62
2021/07/15 01:08:06;;;;;;;7.28;6.68;;;;;;;20.65;64.97;100665.78;702004;28;21148;-62
2021/07/15 01:08:28;;;;;;;6.90;6.35;;;;;;;20.64;65.15;100669.63;700100;28;69459;-62
2021/07/15 01:08:49;;;;;;;6.93;6.43;;;;;;;20.64;64.99;100668.75;702292;28;21523;-62
2021/07/15 01:09:10;;;;;;;7.03;6.43;;;;;;;20.64;65.12;100658.66;701627;28;22378;-62
2021/07/15 01:09:31;;;;;;;6.90;6.38;;;;;;;20.64;65.18;100666.91;701242;28;23454;-62
2021/07/15 01:09:53;;;;;;;7.20;6.60;;;;;;;20.63;65.08;100661.63;700686;28;46517;-62
2021/07/15 01:10:17;;;;;;;6.93;6.43;;;;;;;20.64;65.13;100671.50;701483;28;41451;-62
2021/07/15 01:10:45;;;;;;;7.28;6.68;;;;;;;20.64;65.10;100671.50;701014;28;61644;-62
2021/07/15 01:11:16;;;;;;;7.18;6.55;;;;;;;20.65;65.13;100678.69;699337;28;93276;-62
2021/07/15 01:11:44;;;;;;;6.88;6.28;;;;;;;20.64;65.25;100669.63;698125;28;138423;-62
2021/07/15 01:12:16;;;;;;;7.03;6.33;;;;;;;20.65;64.95;100674.03;697680;28;134650;-62
2021/07/15 01:12:47;;;;;;;7.20;6.60;;;;;;;20.66;64.92;100672.13;696896;28;137374;-62
2021/07/15 01:13:16;;;;;;;6.85;6.25;;;;;;;20.65;64.95;100670.47;697532;28;156033;-62
2021/07/15 01:13:44;;;;;;;7.28;6.72;;;;;;;20.63;65.00;100673.41;697829;28;138020;-62
2021/07/15 01:14:09;;;;;;;7.38;6.63;;;;;;;20.65;65.12;100673.19;698087;28;136313;-62
2021/07/15 01:14:34;;;;;;;7.05;6.45;;;;;;;20.64;65.02;100672.38;698107;28;137416;-62
2021/07/15 01:15:06;;;;;;;6.80;6.30;;;;;;;20.64;65.13;100671.50;699391;28;93205;-62
2021/07/15 01:15:31;;;;;;;7.07;6.38;;;;;;;20.63;65.15;100675.34;696783;28;159856;-62
2021/07/15 01:16:04;;;;;;;7.47;6.75;;;;;;;20.63;65.21;100675.34;696981;28;138330;-62
2021/07/15 01:16:30;;;;;;;6.70;6.20;;;;;;;20.61;65.12;100672.84;698400;28;121153;-62
2021/07/15 01:16:55;;;;;;;7.03;6.43;;;;;;;20.63;65.17;100667.09;698986;28;115233;-62
2021/07/15 01:17:20;;;;;;;7.55;6.78;;;;;;;20.64;65.14;100674.25;698836;28;108016;-62
2021/07/15 01:17:53;;;;;;;7.57;6.80;;;;;;;20.68;65.03;100676.28;698432;28;111263;-62
2021/07/15 01:18:23;;;;;;;7.32;6.63;;;;;;;20.70;65.08;100676.88;700980;28;61092;-62
2021/07/15 01:18:51;;;;;;;7.25;6.65;;;;;;;20.72;65.03;100679.38;698069;28;137952;-62
2021/07/15 01:19:36;;;;;;;7.18;6.57;;;;;;;20.76;64.87;100682.47;698382;28;129019;-62
2021/07/15 01:20:31;;;;;;;7.10;6.50;;;;;;;20.79;64.73;100677.31;698390;28;131600;-62
2021/07/15 01:21:12;;;;;;;6.63;6.10;;;;;;;20.84;64.49;100676.56;697149;28;137383;-62
2021/07/15 01:22:07;;;;;;;7.15;6.45;;;;;;;20.85;64.39;100672.75;698284;28;137756;-62
2021/07/15 01:22:29;;;;;;;7.18;6.57;;;;;;;20.83;64.41;100666.66;687487;28;151173;-62
2021/07/15 01:23:01;;;;;;;7.45;6.75;;;;;;;20.82;64.37;100665.81;700091;28;69432;-62
2021/07/15 01:23:42;;;;;;;7.28;6.57;;;;;;;20.82;64.54;100665.81;698112;28;129353;-62
2021/07/15 01:24:33;;;;;;;6.68;6.18;;;;;;;20.82;64.66;100654.84;700411;28;61927;-62
2021/07/15 01:25:25;;;;;;;7.20;6.60;;;;;;;20.81;64.59;100647.69;698601;28;131494;-62
2021/07/15 01:26:06;;;;;;;6.97;6.28;;;;;;;20.81;64.76;100646.88;697872;28;138390;-62
2021/07/15 01:26:49;;;;;;;6.70;6.15;;;;;;;20.80;64.70;100646.03;700083;28;82797;-62
2021/07/15 01:27:24;;;;;;;9.20;6.20;;;;;;;20.80;64.84;100651.53;697621;28;138347;-62
2021/07/15 01:28:05;;;;;;;7.05;6.35;;;;;;;20.79;65.00;100635.31;698017;28;133400;-62
2021/07/15 01:28:41;;;;;;;7.50;6.80;;;;;;;20.78;65.08;100631.72;700856;28;62574;-62
2021/07/15 01:29:13;;;;;;;6.90;6.30;;;;;;;20.79;65.12;100627.91;697967;28;137301;-62
2021/07/15 01:29:56;;;;;;;7.20;6.50;;;;;;;20.76;64.93;100625.66;696460;28;160562;-62
2021/07/15 01:30:19;;;;;;;6.63;6.03;;;;;;;20.77;64.84;100631.97;699877;28;83061;-62
2021/07/15 01:30:43;;;;;;;6.95;6.35;;;;;;;20.75;64.85;100629.47;700193;28;67402;-62
2021/07/15 01:31:04;;;;;;;7.30;6.60;;;;;;;20.74;65.07;100627.00;698931;28;88316;-62
2021/07/15 01:31:26;;;;;;;6.90;6.18;;;;;;;20.72;65.05;100629.13;701718;28;23172;-62
2021/07/15 01:31:51;;;;;;;6.90;6.13;;;;;;;20.70;64.95;100635.72;701070;28;46463;-62
2021/07/15 01:32:13;;;;;;;6.85;6.13;;;;;;;20.69;64.79;100631.31;698955;28;115162;-62
2021/07/15 01:32:38;;;;;;;7.00;6.50;;;;;;;20.68;64.89;100629.63;701052;28;44387;-62
2021/07/15 01:33:03;;;;;;;7.10;6.40;;;;;;;20.67;64.96;100632.63;693316;28;134000;-62
2021/07/15 01:33:28;;;;;;;6.95;6.35;;;;;;;20.66;65.24;100628.22;694440;28;113597;-62
2021/07/15 01:33:50;;;;;;;7.00;6.47;;;;;;;20.66;64.89;100639.22;695968;28;115282;-62
2021/07/15 01:34:13;;;;;;;6.70;6.15;;;;;;;20.63;65.06;100632.25;698093;28;46332;-62
2021/07/15 01:34:36;;;;;;;7.05;6.30;;;;;;;20.61;64.97;100631.69;697509;28;69228;-62
2021/07/15 01:35:01;;;;;;;6.80;6.20;;;;;;;20.62;64.98;100640.72;699821;28;69483;-62
2021/07/15 01:35:30;;;;;;;6.90;6.15;;;;;;;20.60;65.07;100634.66;696299;28;92661;-62
2021/07/15 01:35:54;;;;;;;6.82;6.25;;;;;;;20.57;65.02;100633.25;694774;28;138642;-62
2021/07/15 01:36:18;;;;;;;6.60;6.10;;;;;;;20.55;64.96;100640.91;697443;28;67483;-62
2021/07/15 01:36:42;;;;;;;7.00;6.30;;;;;;;20.53;64.98;100641.13;696173;28;115045;-62
2021/07/15 01:37:06;;;;;;;6.65;6.05;;;;;;;20.50;65.22;100638.88;696842;28;90849;-62
2021/07/15 01:37:27;;;;;;;6.88;6.30;;;;;;;20.49;65.23;100639.94;699494;28;91762;-62
2021/07/15 01:37:50;;;;;;;7.35;6.50;;;;;;;20.45;65.34;100636.03;700684;28;32651;-62
2021/07/15 01:38:13;;;;;;;7.13;6.43;;;;;;;20.43;65.65;100638.19;701057;28;47113;-62
2021/07/15 01:38:38;;;;;;;7.70;6.63;;;;;;;20.41;65.60;100645.84;701959;28;37087;-62
2021/07/15 01:39:03;;;;;;;6.85;6.25;;;;;;;20.40;65.52;100635.13;698034;28;137855;-62
2021/07/15 01:39:27;;;;;;;6.28;5.78;;;;;;;20.39;65.46;100634.28;698937;28;92464;-62
2021/07/15 01:39:50;;;;;;;6.65;5.97;;;;;;;20.38;65.48;100643.59;699585;28;92292;-62
2021/07/15 01:40:13;;;;;;;6.57;5.88;;;;;;;20.37;65.37;100644.66;700183;28;67275;-63
2021/07/15 01:40:41;;;;;;;7.28;6.57;;;;;;;20.37;65.49;100636.44;700785;28;69431;-62
2021/07/15 01:41:05;;;;;;;6.60;6.10;;;;;;;20.37;65.30;100639.16;696760;28;137831;-62
2021/07/15 01:41:28;;;;;;;6.40;5.90;;;;;;;20.35;65.36;100641.34;699475;28;93245;-62
2021/07/15 01:41:53;;;;;;;7.00;6.30;;;;;;;20.35;65.34;100646.81;700060;28;69482;-62
2021/07/15 01:42:21;;;;;;;7.63;6.20;;;;;;;20.33;65.42;100644.31;700793;28;59754;-62
2021/07/15 01:42:42;;;;;;;6.43;5.80;;;;;;;20.32;65.73;100639.91;698259;28;23431;-62
2021/07/15 01:43:06;;;;;;;6.25;5.75;;;;;;;20.31;65.48;100645.63;698838;28;22502;-62
2021/07/15 01:43:30;;;;;;;6.22;5.72;;;;;;;20.30;65.76;100643.97;699381;28;15201;-62
2021/07/15 01:43:54;;;;;;;7.07;6.38;;;;;;;20.29;65.68;100645.06;696661;28;92282;-63
2021/07/15 01:44:20;;;;;;;6.63;6.07;;;;;;;20.28;65.74;100643.38;697964;28;52622;-62
2021/07/15 01:44:42;;;;;;;9.75;6.40;;;;;;;20.28;65.72;100637.88;700354;28;60560;-62
2021/07/15 01:45:07;;;;;;;6.97;5.95;;;;;;;20.26;65.57;100646.34;701370;28;13358;-62
2021/07/15 01:45:29;;;;;;;6.82;6.00;;;;;;;20.26;65.59;100643.63;698401;28;116004;-62
2021/07/15 01:46:01;;;;;;;6.97;6.07;;;;;;;20.26;65.59;100638.13;698701;28;98306;-62
2021/07/15 01:46:23;;;;;;;6.30;5.80;;;;;;;20.26;65.83;100631.81;702438;28;965;-62
2021/07/15 01:46:45;;;;;;;6.43;5.85;;;;;;;20.25;65.61;100630.16;702435;28;7437;-62
2021/07/15 01:47:06;;;;;;;6.47;5.93;;;;;;;20.24;65.67;100634.81;700400;28;70481;-62
2021/07/15 01:47:27;;;;;;;5.85;5.45;;;;;;;20.26;65.69;100634.56;701299;28;46617;-62
2021/07/15 01:47:49;;;;;;;6.30;5.80;;;;;;;20.25;65.68;100639.22;700978;28;24411;-63
2021/07/15 01:48:11;;;;;;;6.57;6.07;;;;;;;20.25;65.72;100627.41;701144;28;23521;-62
2021/07/15 01:48:32;;;;;;;6.63;6.07;;;;;;;20.24;65.78;100631.25;702508;28;1704;-62
2021/07/15 01:48:53;;;;;;;6.85;6.18;;;;;;;20.23;65.81;100627.66;701147;28;47667;-62
2021/07/15 01:49:15;;;;;;;6.63;6.03;;;;;;;20.25;65.87;100630.16;701314;28;8673;-62
2021/07/15 01:49:37;;;;;;;6.40;5.80;;;;;;;20.25;65.87;100627.41;701909;28;21658;-62
2021/07/15 01:49:59;;;;;;;6.70;6.07;;;;;;;20.24;65.98;100626.59;701509;28;47360;-62
2021/07/15 01:50:20;;;;;;;7.38;6.68;;;;;;;20.25;65.79;100628.25;701699;28;37061;-62
2021/07/15 01:50:42;;;;;;;7.05;6.47;;;;;;;20.26;65.93;100626.34;701303;28;47451;-62
2021/07/15 01:51:04;;;;;;;6.82;6.22;;;;;;;20.26;65.92;100621.69;700692;28;22392;-62
2021/07/15 01:51:25;;;;;;;7.20;6.15;;;;;;;20.27;65.91;100619.78;701217;28;38484;-62
2021/07/15 01:51:47;;;;;;;7.63;6.15;;;;;;;20.27;65.84;100622.53;702212;28;21439;-62
2021/07/15 01:52:08;;;;;;;6.53;5.90;;;;;;;20.27;65.69;100620.63;700892;28;45501;-62